Time;durP1;ratioP1;P1;durP2;ratioP2;P2;SDS_P1;SDS_P2;PMS_P1;PMS_P2;Temp;Humidity;BMP_temperature;BMP_pressure;BME280_temperature;BME280_humidity;BME280_pressure;Samples;Min_cycle;Max_cycle;Signal;HPM_P1;HPM_P2
2022/02/01 00:01:00;;;;;;;;;14.75;11.75;;;;;19.48;35.36;101937.81;5081273;28;45767;-76
2022/02/01 00:03:17;;;;;;;;;19.75;14.25;;;;;19.48;35.79;101916.63;5081051;27;45342;-76
2022/02/01 00:05:53;;;;;;;;;18.75;12.75;;;;;19.51;35.74;101911.31;5080888;27;45779;-76
2022/02/01 00:11:10;;;;;;;;;11.00;10.50;;;;;19.47;34.99;101901.66;5079707;28;45407;-76
2022/02/01 00:35:28;;;;;;;;;16.25;12.75;;;;;19.29;35.57;101904.47;5079646;28;45591;-76
2022/02/01 00:38:05;;;;;;;;;12.50;11.00;;;;;19.26;34.62;101905.34;5064777;28;45445;-77
2022/02/01 00:40:32;;;;;;;;;10.00;9.00;;;;;19.26;34.86;101907.09;5064100;28;45176;-76
2022/02/01 00:42:58;;;;;;;;;12.00;10.50;;;;;19.23;34.60;101918.59;5078838;27;45449;-76
2022/02/01 00:45:23;;;;;;;;;12.50;12.00;;;;;19.19;35.17;101915.09;5060194;28;47086;-76
2022/02/01 00:47:49;;;;;;;;;10.75;10.50;;;;;19.15;34.64;101913.38;5060232;28;45582;-76
2022/02/01 00:50:16;;;;;;;;;9.50;7.75;;;;;19.12;35.36;101915.16;5060218;28;45326;-76
2022/02/01 00:52:41;;;;;;;;;13.25;10.50;;;;;19.14;35.33;101916.91;5058761;28;45507;-76
2022/02/01 00:55:07;;;;;;;;;13.75;9.25;;;;;19.14;35.06;101922.19;5059037;28;45488;-76
2022/02/01 00:57:33;;;;;;;;;14.00;11.25;;;;;19.16;35.18;101933.66;5058950;28;45314;-76
2022/02/01 01:00:00;;;;;;;;;14.25;10.50;;;;;19.16;35.63;101933.66;5046674;28;53172;-76
2022/02/01 01:02:26;;;;;;;;;14.75;11.50;;;;;19.14;35.83;101938.06;5039081;28;47241;-76
2022/02/01 01:04:51;;;;;;;;;10.75;10.75;;;;;19.13;35.38;101938.97;5041767;28;49264;-76
2022/02/01 01:07:17;;;;;;;;;13.00;9.75;;;;;19.12;35.79;101942.50;5057314;28;45272;-76
2022/02/01 01:09:42;;;;;;;;;14.00;10.75;;;;;19.11;35.74;101951.34;5078904;28;52589;-76
2022/02/01 01:12:08;;;;;;;;;13.25;12.00;;;;;19.12;35.58;101954.88;5061977;28;48006;-76
2022/02/01 01:44:56;;;;;;;;;12.50;11.75;;;;;19.07;35.92;101912.53;5068080;28;45809;-76
2022/02/01 01:55:23;;;;;;;;;11.25;8.00;;;;;19.10;35.83;101914.28;5083162;27;45441;-76
2022/02/01 01:57:49;;;;;;;;;12.00;10.75;;;;;19.08;35.57;101919.59;5081383;28;58014;-76
2022/02/01 02:03:12;;;;;;;;;10.00;7.25;;;;;19.13;35.44;101919.56;5081746;28;45190;-76
2022/02/01 02:05:38;;;;;;;;;13.25;10.00;;;;;19.12;35.96;101916.06;5081624;28;47024;-77
2022/02/01 02:08:03;;;;;;;;;12.75;9.25;;;;;19.12;36.50;101908.09;5083445;28;45235;-76
2022/02/01 02:10:33;;;;;;;;;10.75;9.75;;;;;19.11;36.14;101901.06;5062807;28;45500;-76
2022/02/01 02:15:55;;;;;;;;;12.50;8.00;;;;;19.09;35.96;101921.34;5082498;27;45322;-76
2022/02/01 02:18:21;;;;;;;;;10.25;8.75;;;;;19.08;36.20;101911.66;5081758;28;45438;-76
2022/02/01 02:21:05;;;;;;;;;12.00;10.50;;;;;19.08;36.80;101901.06;5061336;28;45416;-76
2022/02/01 02:23:30;;;;;;;;;11.25;11.00;;;;;19.09;36.49;101910.75;5059327;28;45259;-76
2022/02/01 02:25:56;;;;;;;;;11.25;10.75;;;;;19.09;36.57;101923.09;5064051;28;63579;-76
2022/02/01 02:28:21;;;;;;;;;11.00;8.25;;;;;19.07;36.80;101931.06;5047802;28;45910;-76
2022/02/01 02:30:48;;;;;;;;;11.75;10.75;;;;;19.06;36.59;101924.03;5098576;27;45429;-76
2022/02/01 02:33:15;;;;;;;;;8.75;7.75;;;;;19.06;36.40;101917.84;5082685;28;45244;-76
2022/02/01 02:35:58;;;;;;;;;13.50;10.75;;;;;19.08;36.56;101916.06;5082535;27;46189;-77
2022/02/01 02:38:33;;;;;;;;;12.50;9.25;;;;;19.07;36.26;101917.84;5082734;27;45267;-76
2022/02/01 02:41:10;;;;;;;;;9.25;8.75;;;;;19.03;36.03;101913.47;5065700;28;45497;-76
2022/02/01 02:46:26;;;;;;;;;8.25;7.50;;;;;18.99;36.20;101908.19;5081052;28;45390;-76
2022/02/01 02:48:52;;;;;;;;;12.25;9.50;;;;;18.95;36.16;101906.47;5054340;28;45320;-76
2022/02/01 02:51:18;;;;;;;;;7.75;7.75;;;;;18.95;36.30;101919.69;5044291;28;45309;-76
2022/02/01 02:53:44;;;;;;;;;11.25;8.75;;;;;18.95;36.09;101898.53;5064306;28;45512;-77
2022/02/01 02:56:09;;;;;;;;;10.50;8.00;;;;;18.92;36.21;101878.25;5063810;28;45458;-76
2022/02/01 02:58:35;;;;;;;;;9.75;8.25;;;;;18.93;36.29;101869.41;5047148;28;45414;-77
2022/02/01 03:01:00;;;;;;;;;11.00;8.50;;;;;18.95;35.55;101866.78;5063524;28;49973;-77
2022/02/01 03:03:26;;;;;;;;;8.25;7.75;;;;;18.95;37.55;101859.72;5043770;28;45716;-77
2022/02/01 03:05:52;;;;;;;;;7.00;6.00;;;;;18.96;36.56;101857.97;5057113;28;47299;-77
2022/02/01 03:08:17;;;;;;;;;8.50;8.00;;;;;18.95;36.68;101861.50;5050578;28;45492;-77
2022/02/01 03:10:44;;;;;;;;;7.50;7.00;;;;;18.94;37.04;101865.91;5059709;28;53193;-77
2022/02/01 03:13:22;;;;;;;;;8.75;7.75;;;;;18.96;36.90;101871.19;5044327;28;45867;-77
2022/02/01 03:15:58;;;;;;;;;7.50;6.50;;;;;18.91;36.94;101872.09;5048555;28;48449;-75
2022/02/01 03:21:07;;;;;;;;;8.00;5.75;;;;;18.89;36.83;101858.00;5049260;28;45201;-76
2022/02/01 03:23:33;;;;;;;;;9.75;5.50;;;;;18.92;36.66;101838.56;5061687;28;54256;-76
2022/02/01 03:25:58;;;;;;;;;10.25;7.50;;;;;18.89;37.07;101839.47;5060241;28;46139;-76
2022/02/01 03:28:23;;;;;;;;;7.00;6.25;;;;;18.89;36.91;101841.25;5075959;28;47377;-76
2022/02/01 03:30:49;;;;;;;;;10.25;7.75;;;;;18.87;37.06;101849.19;5080343;28;49511;-76
2022/02/01 03:33:14;;;;;;;;;7.00;7.00;;;;;18.81;37.12;101830.72;5063138;28;55566;-76
2022/02/01 03:35:40;;;;;;;;;12.50;9.50;;;;;18.81;37.09;101845.72;5060506;28;45322;-76
2022/02/01 03:38:05;;;;;;;;;7.50;6.25;;;;;18.76;37.30;101839.56;5044934;28;45358;-76
2022/02/01 03:40:31;;;;;;;;;8.25;6.75;;;;;18.73;37.55;101843.13;5060164;28;45614;-76
2022/02/01 03:42:56;;;;;;;;;8.00;7.50;;;;;18.70;37.44;101847.56;5045041;28;45319;-76
2022/02/01 03:45:22;;;;;;;;;10.25;5.50;;;;;18.81;37.56;101862.47;5042809;28;48471;-76
2022/02/01 03:47:47;;;;;;;;;5.75;4.00;;;;;18.77;37.29;101865.16;5041557;28;45518;-76
2022/02/01 03:50:13;;;;;;;;;6.75;4.75;;;;;18.82;37.14;101866.84;5063202;27;45373;-76
2022/02/01 03:52:38;;;;;;;;;6.25;5.75;;;;;18.82;37.16;101847.47;5080473;27;60835;-76
2022/02/01 03:55:04;;;;;;;;;8.50;7.25;;;;;18.84;37.82;101838.63;5081427;27;46509;-76
2022/02/01 03:57:29;;;;;;;;;5.25;4.75;;;;;18.82;36.99;101832.47;5075113;28;45315;-76
2022/02/01 03:59:55;;;;;;;;;5.00;4.25;;;;;18.82;37.42;101823.66;5042889;28;45501;-76
2022/02/01 04:02:20;;;;;;;;;7.25;6.25;;;;;18.79;37.02;101834.28;5057428;28;45408;-76
2022/02/01 04:04:50;;;;;;;;;7.50;5.00;;;;;18.78;37.41;101825.47;5072420;28;45543;-77
2022/02/01 04:07:16;;;;;;;;;4.50;4.50;;;;;18.76;37.57;101819.28;5045257;28;45347;-76
2022/02/01 04:09:41;;;;;;;;;10.75;5.75;;;;;18.76;37.14;101824.56;5063078;28;45446;-76
2022/02/01 04:12:07;;;;;;;;;7.25;6.75;;;;;18.74;37.86;101820.19;5043845;28;45239;-76
2022/02/01 04:14:33;;;;;;;;;4.75;4.75;;;;;18.73;38.35;101811.38;5079633;28;47361;-76
2022/02/01 04:17:01;;;;;;;;;7.50;4.25;;;;;18.74;38.39;101820.19;5062708;28;45422;-75
2022/02/01 04:19:28;;;;;;;;;5.00;4.50;;;;;18.76;37.87;101828.97;5063261;28;45307;-76
2022/02/01 04:22:00;;;;;;;;;3.50;3.50;;;;;18.75;37.58;101812.25;5066024;28;45298;-75
2022/02/01 04:24:26;;;;;;;;;7.25;5.50;;;;;18.76;37.59;101829.84;5060430;28;46160;-75
2022/02/01 04:26:51;;;;;;;;;5.50;4.25;;;;;18.74;37.66;101815.78;5059345;28;45275;-76
2022/02/01 04:29:17;;;;;;;;;8.00;5.25;;;;;18.73;38.29;101807.88;5060753;28;45268;-76
2022/02/01 04:31:42;;;;;;;;;6.50;5.00;;;;;18.73;38.30;101813.16;5058517;28;64017;-76
2022/02/01 04:34:08;;;;;;;;;4.50;4.50;;;;;18.74;37.91;101818.41;5059958;28;61954;-76
2022/02/01 04:36:33;;;;;;;;;8.50;4.50;;;;;18.75;38.53;101822.81;5059896;28;58882;-75
2022/02/01 04:38:59;;;;;;;;;3.50;1.25;;;;;18.75;38.25;101827.22;5060753;28;45222;-76
2022/02/01 04:41:25;;;;;;;;;3.50;3.50;;;;;18.76;38.02;101824.56;5060158;28;45537;-76
2022/02/01 04:43:51;;;;;;;;;5.00;3.00;;;;;18.77;38.12;101820.19;5025910;28;45525;-76
2022/02/01 04:46:17;;;;;;;;;5.00;5.00;;;;;18.75;38.57;101820.19;5025420;28;45450;-76
2022/02/01 04:48:42;;;;;;;;;3.25;2.75;;;;;18.75;38.78;101817.53;5058592;28;53316;-75
2022/02/01 04:51:08;;;;;;;;;3.00;3.00;;;;;18.77;38.41;101815.78;5040313;28;52943;-76
2022/02/01 04:53:33;;;;;;;;;6.25;5.50;;;;;18.80;39.07;101814.88;5041516;28;63002;-76
2022/02/01 04:55:59;;;;;;;;;8.00;5.50;;;;;18.82;38.40;101807.78;5058283;28;45391;-76
2022/02/01 04:58:24;;;;;;;;;3.50;3.50;;;;;18.82;38.09;101806.03;5045293;28;47164;-76
2022/02/01 05:00:50;;;;;;;;;7.00;6.25;;;;;18.82;38.41;101795.44;5061022;28;45623;-76
2022/02/01 05:03:15;;;;;;;;;4.75;4.75;;;;;18.83;38.63;101785.75;5079205;28;48146;-75
2022/02/01 05:05:41;;;;;;;;;3.75;3.50;;;;;18.84;38.97;101783.06;5061217;28;45320;-76
2022/02/01 05:08:10;;;;;;;;;4.50;4.50;;;;;18.85;38.58;101787.50;5045541;28;45182;-76
2022/02/01 05:10:36;;;;;;;;;4.75;4.75;;;;;18.82;38.72;101792.78;5078866;28;45553;-76
2022/02/01 05:15:36;;;;;;;;;6.50;5.00;;;;;18.84;38.94;101798.06;5062242;28;45417;-75
2022/02/01 05:18:02;;;;;;;;;5.25;5.25;;;;;18.82;38.65;101803.38;5045788;28;45348;-76
2022/02/01 05:20:43;;;;;;;;;4.25;3.50;;;;;18.80;38.88;101799.88;5080163;27;45252;-76
2022/02/01 05:23:08;;;;;;;;;6.00;4.00;;;;;18.79;39.31;101810.47;5079042;28;46178;-76
2022/02/01 05:25:34;;;;;;;;;4.00;3.75;;;;;18.78;39.07;101812.25;5079851;27;45235;-76
2022/02/01 05:28:00;;;;;;;;;4.00;3.75;;;;;18.80;39.42;101805.16;5045253;28;45372;-76
2022/02/01 05:30:26;;;;;;;;;5.50;3.50;;;;;18.82;39.69;101798.09;5078518;28;45339;-76
2022/02/01 05:32:52;;;;;;;;;5.50;3.25;;;;;18.84;38.48;101795.41;5041650;28;47280;-75
2022/02/01 05:35:17;;;;;;;;;5.00;4.00;;;;;18.80;39.18;101794.59;5039588;28;45418;-75
2022/02/01 05:37:43;;;;;;;;;7.25;3.50;;;;;18.82;39.58;101805.16;5069132;28;57979;-76
2022/02/01 05:40:11;;;;;;;;;6.75;3.00;;;;;18.83;39.59;101806.91;5079792;27;45251;-76
2022/02/01 05:42:45;;;;;;;;;4.50;4.50;;;;;18.82;38.83;101805.16;5078696;28;45310;-76
2022/02/01 05:45:10;;;;;;;;;3.25;3.00;;;;;18.80;39.11;101791.06;5079571;27;45293;-76
2022/02/01 05:47:36;;;;;;;;;5.50;3.50;;;;;18.79;39.27;101784.03;5080012;27;45268;-75
2022/02/01 05:50:07;;;;;;;;;3.50;3.50;;;;;18.80;39.27;101776.06;5062987;28;45260;-76
2022/02/01 05:52:32;;;;;;;;;4.50;2.75;;;;;18.82;38.98;101770.75;5078556;28;46345;-79
2022/02/01 05:55:01;;;;;;;;;4.75;3.75;;;;;18.88;40.42;101773.38;5058294;28;45615;-91
2022/02/01 05:57:26;;;;;;;;;4.50;3.75;;;;;19.01;40.76;101769.69;5068934;27;45321;-83
2022/02/01 06:00:01;;;;;;;;;6.25;4.00;;;;;19.13;41.01;101756.38;5061315;28;45262;-84
2022/02/01 06:02:26;;;;;;;;;7.50;5.50;;;;;19.29;40.97;101754.47;5062199;28;53317;-82
2022/02/01 06:04:52;;;;;;;;;3.50;3.50;;;;;19.43;41.55;101744.56;5041145;28;60922;-76
2022/02/01 06:07:17;;;;;;;;;10.25;9.75;;;;;19.64;44.71;101738.19;5054214;28;45269;-80
2022/02/01 06:09:43;;;;;;;;;6.25;4.50;;;;;19.80;44.28;101735.34;5041591;28;45190;-77
2022/02/01 06:12:08;;;;;;;;;4.75;4.00;;;;;19.96;44.59;101735.13;5055457;28;47124;-79
2022/02/01 06:14:34;;;;;;;;;4.25;3.25;;;;;20.09;44.65;101740.25;5061581;27;45455;-77
2022/02/01 06:16:59;;;;;;;;;4.50;4.50;;;;;20.22;44.32;101747.13;5080724;27;60942;-79
2022/02/01 06:19:24;;;;;;;;;1.75;1.75;;;;;20.35;44.41;101737.22;5047729;28;48718;-82
2022/02/01 06:21:50;;;;;;;;;3.00;3.00;;;;;20.45;44.53;101745.03;5064021;28;47365;-77
2022/02/01 06:24:19;;;;;;;;;6.25;4.00;;;;;20.55;44.58;101741.34;5063933;28;45362;-76
2022/02/01 06:26:44;;;;;;;;;3.75;3.75;;;;;20.64;44.60;101728.84;5061246;28;45380;-76
2022/02/01 06:29:09;;;;;;;;;4.25;4.25;;;;;20.72;44.28;101735.75;5061348;28;45529;-73
2022/02/01 06:31:35;;;;;;;;;3.25;3.25;;;;;20.80;44.35;101738.28;5061608;28;64808;-76
2022/02/01 06:34:00;;;;;;;;;4.25;3.75;;;;;20.85;44.14;101739.09;5048484;28;45427;-84
2022/02/01 06:36:26;;;;;;;;;3.00;2.50;;;;;20.89;44.11;101735.47;5065480;28;48822;-84
2022/02/01 06:38:51;;;;;;;;;3.00;3.00;;;;;20.92;43.39;101732.75;5047749;28;45614;-84
2022/02/01 06:41:17;;;;;;;;;3.50;3.25;;;;;20.96;43.26;101730.94;5064223;28;45426;-84
2022/02/01 06:43:43;;;;;;;;;4.00;4.00;;;;;20.96;43.04;101730.94;5057597;28;45444;-83
2022/02/01 06:46:08;;;;;;;;;2.00;2.00;;;;;20.97;42.91;101738.00;5044402;28;56898;-79
2022/02/01 06:48:34;;;;;;;;;5.00;3.50;;;;;21.01;43.11;101747.63;5047742;28;45537;-81
2022/02/01 06:50:59;;;;;;;;;4.50;3.25;;;;;21.03;42.70;101745.84;5037818;28;48011;-76
2022/02/01 06:53:24;;;;;;;;;3.75;2.75;;;;;21.05;43.38;101730.78;5064416;28;45504;-89
2022/02/01 06:56:06;;;;;;;;;3.00;2.25;;;;;21.07;43.24;101744.88;5044016;28;45450;-82
2022/02/01 06:58:32;;;;;;;;;2.00;2.00;;;;;21.09;42.54;101746.59;5066673;28;45283;-80
2022/02/01 07:00:57;;;;;;;;;3.50;3.50;;;;;21.11;42.61;101741.25;5045708;28;48136;-77
2022/02/01 07:03:22;;;;;;;;;5.25;4.25;;;;;21.12;42.75;101733.28;5060939;28;45280;-78
2022/02/01 07:05:48;;;;;;;;;3.00;3.00;;;;;21.14;42.79;101741.22;5062402;28;56015;-78
2022/02/01 07:08:13;;;;;;;;;3.50;3.00;;;;;21.16;42.39;101742.94;5082375;27;45205;-79
2022/02/01 07:10:39;;;;;;;;;2.50;2.00;;;;;21.16;42.29;101729.66;5046781;28;47979;-79
2022/02/01 07:13:05;;;;;;;;;4.50;3.75;;;;;21.18;42.38;101748.22;5063948;28;45370;-80
2022/02/01 07:15:30;;;;;;;;;4.25;4.25;;;;;21.18;42.34;101750.84;5080646;28;45326;-81
2022/02/01 07:17:56;;;;;;;;;2.75;2.75;;;;;21.20;42.52;101740.22;5063446;28;53633;-79
2022/02/01 07:20:22;;;;;;;;;3.50;3.50;;;;;21.20;42.23;101737.56;5080442;28;47356;-79
2022/02/01 07:22:48;;;;;;;;;4.00;4.00;;;;;21.19;42.20;101734.03;5082026;27;45408;-79
2022/02/01 07:25:29;;;;;;;;;4.00;3.25;;;;;21.18;42.36;101737.59;5080413;28;45403;-78
2022/02/01 07:27:55;;;;;;;;;4.00;4.00;;;;;21.17;42.40;101736.72;5080378;28;45317;-79
2022/02/01 07:30:24;;;;;;;;;4.25;3.00;;;;;21.17;42.23;101741.16;5063201;28;46211;-78
2022/02/01 07:32:51;;;;;;;;;6.00;3.50;;;;;21.16;42.39;101750.91;5059435;28;45292;-80
2022/02/01 07:35:16;;;;;;;;;5.00;4.00;;;;;21.18;43.26;101748.22;5077049;28;45919;-82
2022/02/01 07:37:46;;;;;;;;;7.00;4.75;;;;;21.20;43.92;101742.84;5061222;28;45478;-76
2022/02/01 07:40:12;;;;;;;;;7.25;4.75;;;;;21.24;44.43;101737.47;5043150;28;46774;-76
2022/02/01 07:42:37;;;;;;;;;8.25;6.50;;;;;21.26;44.06;101737.44;5043538;28;45362;-76
2022/02/01 07:45:08;;;;;;;;;5.75;3.00;;;;;21.28;43.99;101728.56;5060593;28;45467;-76
2022/02/01 07:47:35;;;;;;;;;10.00;5.00;;;;;21.32;43.78;101719.66;5059164;28;45311;-76
2022/02/01 07:50:01;;;;;;;;;5.50;5.50;;;;;21.34;43.85;101709.00;5075951;28;46542;-76
2022/02/01 07:52:26;;;;;;;;;6.00;4.00;;;;;21.36;43.88;101710.72;5059002;28;45390;-76
2022/02/01 07:54:51;;;;;;;;;5.25;2.75;;;;;21.36;44.06;101704.53;5053152;28;53964;-76
2022/02/01 07:57:17;;;;;;;;;7.25;6.00;;;;;21.37;44.08;101696.56;5052256;28;58415;-76
2022/02/01 07:59:42;;;;;;;;;6.00;4.75;;;;;21.39;43.85;101699.16;5058786;28;61427;-76
2022/02/01 08:02:18;;;;;;;;;4.25;4.25;;;;;21.37;43.67;101687.69;5055138;28;51699;-76
2022/02/01 08:04:48;;;;;;;;;7.75;5.25;;;;;21.37;43.47;101691.25;5036075;28;45257;-74
2022/02/01 08:07:13;;;;;;;;;8.25;4.00;;;;;21.39;43.97;101693.84;5063029;28;45496;-76
2022/02/01 08:09:43;;;;;;;;;8.50;6.00;;;;;21.38;43.65;101679.72;5062196;28;45375;-76
2022/02/01 08:13:08;;;;;;;;;7.00;5.50;;;;;21.40;43.53;101693.81;5079765;27;45260;-76
2022/02/01 08:17:55;;;;;;;;;7.00;5.75;;;;;21.39;43.29;101673.50;5079509;28;45424;-76
2022/02/01 08:20:25;;;;;;;;;8.50;5.25;;;;;21.39;43.17;101669.97;5063302;28;48303;-76
2022/02/01 08:25:23;;;;;;;;;10.50;8.00;;;;;21.40;43.66;101677.03;5075874;28;45378;-76
2022/02/01 08:27:49;;;;;;;;;7.75;5.00;;;;;21.39;43.60;101672.63;5079459;28;45460;-77
2022/02/01 08:30:17;;;;;;;;;6.25;4.00;;;;;21.40;42.93;101674.34;5062036;28;46137;-76
2022/02/01 08:32:43;;;;;;;;;6.00;5.50;;;;;21.40;43.14;101672.56;5078946;28;58212;-76
2022/02/01 08:35:09;;;;;;;;;8.50;7.00;;;;;21.40;42.97;101655.78;5062366;28;45296;-76
2022/02/01 08:37:34;;;;;;;;;6.25;4.00;;;;;21.39;42.87;101656.69;5078815;28;45238;-80
2022/02/01 08:39:59;;;;;;;;;5.00;4.00;;;;;21.40;43.28;101664.59;5040072;28;65118;-78
2022/02/01 08:42:28;;;;;;;;;6.50;5.50;;;;;21.39;43.31;101657.56;5047953;28;58045;-76
2022/02/01 08:44:56;;;;;;;;;5.75;4.00;;;;;21.42;42.97;101649.50;5044849;28;45378;-77
2022/02/01 08:47:22;;;;;;;;;8.75;5.00;;;;;21.42;43.05;101641.53;5057410;28;45278;-77
2022/02/01 08:49:53;;;;;;;;;4.00;4.00;;;;;21.45;43.03;101636.16;5064380;28;45704;-80
2022/02/01 08:52:33;;;;;;;;;6.00;5.00;;;;;21.40;42.66;101642.50;5038964;28;45446;-86
2022/02/01 08:55:01;;;;;;;;;5.25;4.50;;;;;21.41;43.19;101629.19;5033021;28;45441;-82
2022/02/01 08:57:28;;;;;;;;;6.75;6.75;;;;;21.43;43.08;101631.78;5053775;28;45493;-82
2022/02/01 09:00:04;;;;;;;;;6.75;6.75;;;;;21.47;42.64;101633.50;5095358;27;47702;-81
2022/02/01 09:02:32;;;;;;;;;5.00;4.00;;;;;21.47;43.95;101628.19;5046464;28;45686;-84
2022/02/01 09:04:58;;;;;;;;;8.00;4.75;;;;;21.49;43.89;101623.69;5052682;28;45264;-82
2022/02/01 09:07:26;;;;;;;;;7.00;5.00;;;;;21.52;43.99;101625.41;5042250;28;45372;-83
2022/02/01 09:09:52;;;;;;;;;5.75;4.75;;;;;21.54;44.01;101618.28;5042699;28;45405;-82
2022/02/01 09:12:18;;;;;;;;;5.25;4.25;;;;;21.57;43.64;101623.53;5024509;28;56414;-80
2022/02/01 09:14:47;;;;;;;;;6.25;6.25;;;;;21.56;43.82;101616.47;5042385;28;45403;-80
2022/02/01 09:17:16;;;;;;;;;8.25;6.25;;;;;21.54;43.09;101607.66;5058945;28;46044;-80
2022/02/01 09:19:42;;;;;;;;;5.00;4.50;;;;;21.55;43.37;101610.28;5058304;28;45606;-80
2022/02/01 09:22:08;;;;;;;;;7.50;5.25;;;;;21.57;43.05;101602.28;5041199;28;45431;-80
2022/02/01 09:24:33;;;;;;;;;8.75;5.00;;;;;21.56;43.29;101595.22;5042066;28;45408;-80
2022/02/01 09:27:02;;;;;;;;;9.00;5.50;;;;;21.55;43.30;101594.34;5045189;28;45520;-80
2022/02/01 09:29:28;;;;;;;;;8.00;4.25;;;;;21.58;43.31;101593.41;5051631;28;45295;-79
2022/02/01 09:31:54;;;;;;;;;6.00;5.00;;;;;21.55;42.77;101598.78;5057873;28;45312;-80
2022/02/01 09:34:20;;;;;;;;;6.75;5.25;;;;;21.54;43.29;101594.38;5041989;28;45252;-81
2022/02/01 09:36:46;;;;;;;;;7.00;3.00;;;;;21.55;42.88;101593.47;5062040;28;45481;-83
2022/02/01 09:39:11;;;;;;;;;5.75;5.25;;;;;21.57;42.81;101591.66;5079570;28;45433;-78
2022/02/01 09:41:38;;;;;;;;;5.00;5.00;;;;;21.58;42.92;101593.41;5077974;28;46330;-85
2022/02/01 09:44:04;;;;;;;;;6.75;5.50;;;;;21.58;43.05;101594.28;5070275;28;45452;-79
2022/02/01 09:46:30;;;;;;;;;8.50;6.00;;;;;21.59;42.69;101581.88;5074149;27;45510;-80
2022/02/01 09:48:56;;;;;;;;;6.00;6.00;;;;;21.60;42.87;101583.59;5052281;28;45467;-78
2022/02/01 09:51:21;;;;;;;;;8.25;5.50;;;;;21.60;42.71;101583.59;5033538;28;45196;-79
2022/02/01 09:53:47;;;;;;;;;6.25;5.00;;;;;21.59;42.64;101595.16;5064176;28;45205;-91
2022/02/01 09:56:15;;;;;;;;;9.00;6.00;;;;;21.60;42.93;101589.78;5061380;28;45559;-81
2022/02/01 09:58:41;;;;;;;;;9.00;6.00;;;;;21.57;42.63;101583.69;5078275;28;45433;-83
2022/02/01 10:01:21;;;;;;;;;8.50;5.00;;;;;21.60;42.53;101586.25;5082339;28;45416;-79
2022/02/01 10:03:59;;;;;;;;;5.50;4.00;;;;;21.59;42.87;101595.16;5065085;27;45339;-79
2022/02/01 10:06:29;;;;;;;;;7.00;6.00;;;;;21.57;42.31;101591.66;5066142;28;45325;-79
2022/02/01 10:09:06;;;;;;;;;8.75;6.75;;;;;21.57;42.40;101592.53;5064518;27;45487;-79
2022/02/01 10:11:40;;;;;;;;;5.50;5.50;;;;;21.56;42.29;101604.06;5045500;28;45821;-80
2022/02/01 10:14:08;;;;;;;;;6.75;5.75;;;;;21.54;42.94;101602.34;5062464;28;45267;-81
2022/02/01 10:16:55;;;;;;;;;7.50;5.25;;;;;21.55;42.69;101588.16;5081251;28;45258;-79
2022/02/01 10:19:20;;;;;;;;;7.00;5.75;;;;;21.54;42.38;101587.28;5081072;28;45466;-81
2022/02/01 10:22:00;;;;;;;;;8.00;7.00;;;;;21.53;42.55;101596.16;5082476;27;45401;-79
2022/02/01 10:24:28;;;;;;;;;7.00;5.25;;;;;21.53;42.59;101589.97;5081290;28;45396;-79
2022/02/01 10:27:24;;;;;;;;;7.50;7.25;;;;;21.52;41.99;101581.13;5082581;27;45247;-79
2022/02/01 10:30:16;;;;;;;;;7.75;7.00;;;;;21.53;42.26;101584.66;5067158;28;46475;-79
2022/02/01 10:35:26;;;;;;;;;7.50;4.00;;;;;21.52;42.76;101575.81;5060844;28;45405;-81
2022/02/01 10:38:03;;;;;;;;;7.75;7.00;;;;;21.53;42.28;101576.69;5046071;28;45501;-81
2022/02/01 10:40:39;;;;;;;;;7.25;6.00;;;;;21.53;42.42;101579.34;5061077;28;47347;-86
2022/02/01 10:43:17;;;;;;;;;6.25;6.25;;;;;21.53;42.70;101566.06;5080916;28;45512;-79
2022/02/01 10:45:43;;;;;;;;;9.75;7.25;;;;;21.52;42.54;101562.53;5044193;28;45443;-82
2022/02/01 10:48:16;;;;;;;;;8.00;6.50;;;;;21.54;42.41;101573.13;5044337;28;45720;-80
2022/02/01 10:50:41;;;;;;;;;10.50;6.50;;;;;21.56;42.13;101573.97;5082275;28;45338;-85
2022/02/01 10:53:18;;;;;;;;;7.00;5.00;;;;;21.55;42.52;101566.91;5043797;28;45594;-83
2022/02/01 10:55:44;;;;;;;;;7.00;4.50;;;;;21.55;42.42;101556.28;5056672;28;45477;-84
2022/02/01 10:58:11;;;;;;;;;7.00;5.75;;;;;21.55;42.41;101545.66;5047149;28;45378;-84
2022/02/01 11:00:36;;;;;;;;;7.25;7.00;;;;;21.57;42.45;101546.50;5080661;28;45595;-82
2022/02/01 11:03:02;;;;;;;;;6.25;6.25;;;;;21.56;42.48;101539.44;5045749;28;46471;-87
2022/02/01 11:05:27;;;;;;;;;5.75;5.00;;;;;21.57;42.25;101538.53;5053761;28;45247;-86
2022/02/01 11:07:54;;;;;;;;;8.75;6.50;;;;;21.56;42.52;101524.38;5063864;28;45521;-87
2022/02/01 11:10:19;;;;;;;;;7.00;6.00;;;;;21.55;42.61;101529.72;5060611;28;47022;-87
2022/02/01 11:12:44;;;;;;;;;6.25;6.25;;;;;21.56;42.61;101527.03;5062574;28;53828;-87
2022/02/01 11:15:24;;;;;;;;;8.25;5.75;;;;;21.56;42.34;101520.84;5063378;28;45564;-87
2022/02/01 11:17:51;;;;;;;;;6.25;5.50;;;;;21.56;42.32;101499.59;5068805;28;45437;-87
2022/02/01 11:20:30;;;;;;;;;7.50;7.00;;;;;21.55;42.45;101513.78;5045472;28;47394;-87
2022/02/01 11:23:08;;;;;;;;;6.50;5.25;;;;;21.54;42.62;101512.88;5063818;27;45484;-85
2022/02/01 11:25:42;;;;;;;;;1.00;1.00;;;;;21.51;42.42;101493.50;5060466;28;45336;-88
2022/02/01 11:28:13;;;;;;;;;8.25;7.00;;;;;21.52;41.89;101497.91;5040913;28;45355;-86
2022/02/01 11:30:43;;;;;;;;;8.00;5.00;;;;;21.52;42.29;101508.53;5060378;28;47597;-87
2022/02/01 11:33:10;;;;;;;;;7.50;6.75;;;;;21.51;42.29;101499.69;5037969;28;45390;-88
2022/02/01 11:35:36;;;;;;;;;7.25;6.00;;;;;21.53;42.11;101511.16;5059938;27;45270;-87
2022/02/01 11:38:16;;;;;;;;;5.00;5.00;;;;;21.53;42.05;101505.84;5049954;28;45271;-85
2022/02/01 11:40:48;;;;;;;;;5.75;5.00;;;;;21.52;42.11;101506.75;5027029;28;47532;-87
2022/02/01 11:43:14;;;;;;;;;6.00;5.75;;;;;21.54;42.10;101488.13;5028066;28;45419;-85
2022/02/01 11:45:42;;;;;;;;;6.50;6.25;;;;;21.56;42.33;101486.31;5042941;28;45415;-86
2022/02/01 11:48:36;;;;;;;;;6.00;5.50;;;;;21.55;42.24;101485.44;5043456;28;45470;-86
2022/02/01 11:51:32;;;;;;;;;6.00;6.00;;;;;21.59;42.29;101486.22;5063510;28;46342;-86
2022/02/01 11:53:59;;;;;;;;;7.50;5.50;;;;;21.56;42.22;101479.22;5050388;28;45850;-86
2022/02/01 11:56:32;;;;;;;;;8.75;7.50;;;;;21.57;42.03;101469.47;5046044;28;45496;-85
2022/02/01 11:59:00;;;;;;;;;4.50;4.25;;;;;21.60;42.25;101485.31;5057178;28;45477;-86
2022/02/01 12:01:36;;;;;;;;;6.75;5.25;;;;;21.58;42.47;101481.84;5043180;28;47463;-87
2022/02/01 12:04:05;;;;;;;;;6.25;6.25;;;;;21.57;42.02;101480.97;5040396;28;45444;-88
2022/02/01 12:07:05;;;;;;;;;5.00;5.00;;;;;21.59;41.64;101491.53;5080008;28;45521;-86
2022/02/01 12:09:30;;;;;;;;;5.75;5.75;;;;;21.57;42.39;101486.28;5059548;28;45431;-87
2022/02/01 12:12:00;;;;;;;;;6.00;5.00;;;;;21.54;42.23;101475.69;5059536;28;46125;-86
2022/02/01 12:14:26;;;;;;;;;9.50;6.00;;;;;21.56;41.91;101473.91;5059118;28;45466;-86
2022/02/01 12:16:52;;;;;;;;;6.00;6.00;;;;;21.60;41.93;101485.31;5062654;28;45331;-85
2022/02/01 12:19:37;;;;;;;;;6.75;6.00;;;;;21.59;42.13;101476.47;5059182;28;45398;-86
2022/02/01 12:22:40;;;;;;;;;6.25;5.25;;;;;21.58;42.35;101482.72;5078463;28;46974;-86
2022/02/01 12:25:10;;;;;;;;;6.00;6.00;;;;;21.56;41.83;101476.56;5079157;27;45444;-86
2022/02/01 12:27:36;;;;;;;;;7.25;6.00;;;;;21.56;41.95;101471.25;5042741;28;45308;-86
2022/02/01 12:30:03;;;;;;;;;8.00;6.50;;;;;21.53;42.06;101462.47;5038939;28;45547;-87
2022/02/01 12:32:31;;;;;;;;;8.75;7.25;;;;;21.53;42.36;101444.75;5045065;28;45330;-87
2022/02/01 12:34:57;;;;;;;;;7.00;6.25;;;;;21.56;41.76;101443.81;5026260;28;45454;-86
2022/02/01 12:37:23;;;;;;;;;6.75;5.25;;;;;21.53;42.04;101441.22;5025555;28;45416;-86
2022/02/01 12:40:08;;;;;;;;;9.50;6.00;;;;;21.54;42.05;101443.84;5042255;28;45526;-86
2022/02/01 12:42:42;;;;;;;;;8.00;6.00;;;;;21.52;41.91;101432.38;5043163;28;46363;-87
2022/02/01 12:48:02;;;;;;;;;5.00;5.00;;;;;21.54;41.91;101432.34;5060842;28;45354;-86
2022/02/01 12:50:27;;;;;;;;;6.00;6.00;;;;;21.57;41.85;101430.50;5041810;28;45754;-87
2022/02/01 12:53:01;;;;;;;;;7.00;6.00;;;;;21.56;41.60;101427.88;5038460;28;52773;-87
2022/02/01 12:55:29;;;;;;;;;5.50;5.50;;;;;21.52;42.03;101404.94;5042171;28;45414;-83
2022/02/01 12:57:57;;;;;;;;;7.25;6.00;;;;;21.56;42.17;101415.47;5025859;28;45434;-78